sensor_id;sensor_type;location;lat;lon;timestamp;P1;durP1;ratioP1;P2;durP2;ratioP2
28772;SDS011;15925;51.222;5.678;2023-06-19T00:02:06;4.43;;;2.30;;
28772;SDS011;15925;51.222;5.678;2023-06-19T00:04:32;4.87;;;2.33;;
28772;SDS011;15925;51.222;5.678;2023-06-19T00:06:59;2.87;;;1.97;;
28772;SDS011;15925;51.222;5.678;2023-06-19T00:09:25;5.85;;;2.70;;
28772;SDS011;15925;51.222;5.678;2023-06-19T00:11:51;6.82;;;3.17;;
28772;SDS011;15925;51.222;5.678;2023-06-19T00:14:17;3.95;;;2.22;;
28772;SDS011;15925;51.222;5.678;2023-06-19T00:16:43;4.20;;;2.28;;
28772;SDS011;15925;51.222;5.678;2023-06-19T00:19:09;4.18;;;2.08;;
28772;SDS011;15925;51.222;5.678;2023-06-19T00:21:37;5.78;;;2.40;;
28772;SDS011;15925;51.222;5.678;2023-06-19T00:26:29;4.40;;;2.28;;
28772;SDS011;15925;51.222;5.678;2023-06-19T00:28:56;6.17;;;3.13;;
28772;SDS011;15925;51.222;5.678;2023-06-19T00:31:22;8.82;;;2.30;;
28772;SDS011;15925;51.222;5.678;2023-06-19T00:33:48;4.28;;;2.53;;
28772;SDS011;15925;51.222;5.678;2023-06-19T00:36:15;4.35;;;2.00;;
28772;SDS011;15925;51.222;5.678;2023-06-19T00:38:45;4.25;;;2.00;;
28772;SDS011;15925;51.222;5.678;2023-06-19T00:41:11;7.50;;;2.08;;
28772;SDS011;15925;51.222;5.678;2023-06-19T00:43:37;2.60;;;2.00;;
28772;SDS011;15925;51.222;5.678;2023-06-19T00:46:03;3.28;;;2.22;;
28772;SDS011;15925;51.222;5.678;2023-06-19T00:48:29;5.43;;;2.50;;
28772;SDS011;15925;51.222;5.678;2023-06-19T00:50:57;4.30;;;2.08;;
28772;SDS011;15925;51.222;5.678;2023-06-19T00:53:23;4.60;;;2.08;;
28772;SDS011;15925;51.222;5.678;2023-06-19T00:55:53;3.88;;;2.22;;
28772;SDS011;15925;51.222;5.678;2023-06-19T00:58:20;7.85;;;2.13;;
28772;SDS011;15925;51.222;5.678;2023-06-19T01:00:47;3.83;;;1.60;;
28772;SDS011;15925;51.222;5.678;2023-06-19T01:03:13;4.80;;;2.42;;
28772;SDS011;15925;51.222;5.678;2023-06-19T01:05:40;6.07;;;2.42;;
28772;SDS011;15925;51.222;5.678;2023-06-19T01:11:05;4.80;;;2.13;;
28772;SDS011;15925;51.222;5.678;2023-06-19T01:16:12;5.22;;;1.92;;
28772;SDS011;15925;51.222;5.678;2023-06-19T01:21:15;5.50;;;2.08;;
28772;SDS011;15925;51.222;5.678;2023-06-19T01:23:41;8.02;;;2.15;;
28772;SDS011;15925;51.222;5.678;2023-06-19T01:28:37;9.18;;;2.15;;
28772;SDS011;15925;51.222;5.678;2023-06-19T01:31:11;3.17;;;1.98;;
28772;SDS011;15925;51.222;5.678;2023-06-19T01:33:44;4.10;;;1.98;;
28772;SDS011;15925;51.222;5.678;2023-06-19T01:36:13;2.50;;;1.45;;
28772;SDS011;15925;51.222;5.678;2023-06-19T01:41:06;4.10;;;1.48;;
28772;SDS011;15925;51.222;5.678;2023-06-19T01:43:33;3.33;;;1.65;;
28772;SDS011;15925;51.222;5.678;2023-06-19T01:46:00;3.53;;;1.70;;
28772;SDS011;15925;51.222;5.678;2023-06-19T01:48:26;6.75;;;2.70;;
28772;SDS011;15925;51.222;5.678;2023-06-19T01:50:52;4.15;;;1.73;;
28772;SDS011;15925;51.222;5.678;2023-06-19T01:53:18;3.05;;;1.23;;
28772;SDS011;15925;51.222;5.678;2023-06-19T01:55:45;4.07;;;1.67;;
28772;SDS011;15925;51.222;5.678;2023-06-19T01:58:11;3.80;;;1.55;;
28772;SDS011;15925;51.222;5.678;2023-06-19T02:00:37;4.95;;;1.75;;
28772;SDS011;15925;51.222;5.678;2023-06-19T02:03:03;2.20;;;1.00;;
28772;SDS011;15925;51.222;5.678;2023-06-19T02:05:32;3.60;;;1.63;;
28772;SDS011;15925;51.222;5.678;2023-06-19T02:08:00;2.30;;;1.60;;
28772;SDS011;15925;51.222;5.678;2023-06-19T02:10:26;3.67;;;2.00;;
28772;SDS011;15925;51.222;5.678;2023-06-19T02:12:52;3.17;;;1.30;;
28772;SDS011;15925;51.222;5.678;2023-06-19T02:15:17;3.53;;;1.25;;
28772;SDS011;15925;51.222;5.678;2023-06-19T02:17:44;2.92;;;1.40;;
28772;SDS011;15925;51.222;5.678;2023-06-19T02:20:10;3.65;;;2.13;;
28772;SDS011;15925;51.222;5.678;2023-06-19T02:22:39;3.72;;;1.60;;
28772;SDS011;15925;51.222;5.678;2023-06-19T02:25:06;3.20;;;1.35;;
28772;SDS011;15925;51.222;5.678;2023-06-19T02:29:58;5.07;;;1.88;;
28772;SDS011;15925;51.222;5.678;2023-06-19T02:32:24;4.77;;;1.67;;
28772;SDS011;15925;51.222;5.678;2023-06-19T02:34:50;3.03;;;1.65;;
28772;SDS011;15925;51.222;5.678;2023-06-19T02:37:16;2.95;;;1.13;;
28772;SDS011;15925;51.222;5.678;2023-06-19T02:39:41;4.07;;;1.87;;
28772;SDS011;15925;51.222;5.678;2023-06-19T02:42:07;5.20;;;1.30;;
28772;SDS011;15925;51.222;5.678;2023-06-19T02:44:33;5.72;;;1.48;;
28772;SDS011;15925;51.222;5.678;2023-06-19T02:46:59;1.13;;;0.90;;
28772;SDS011;15925;51.222;5.678;2023-06-19T02:49:25;1.83;;;1.27;;
28772;SDS011;15925;51.222;5.678;2023-06-19T02:51:50;3.35;;;1.85;;
28772;SDS011;15925;51.222;5.678;2023-06-19T02:54:16;2.03;;;1.40;;
28772;SDS011;15925;51.222;5.678;2023-06-19T02:56:42;2.40;;;1.30;;
28772;SDS011;15925;51.222;5.678;2023-06-19T02:59:08;4.18;;;1.55;;
28772;SDS011;15925;51.222;5.678;2023-06-19T03:01:34;2.93;;;1.67;;
28772;SDS011;15925;51.222;5.678;2023-06-19T03:03:59;3.85;;;1.67;;
28772;SDS011;15925;51.222;5.678;2023-06-19T03:06:25;2.92;;;1.48;;
28772;SDS011;15925;51.222;5.678;2023-06-19T03:08:51;2.63;;;1.50;;
28772;SDS011;15925;51.222;5.678;2023-06-19T03:11:17;3.42;;;1.52;;
28772;SDS011;15925;51.222;5.678;2023-06-19T03:13:47;4.35;;;1.85;;
28772;SDS011;15925;51.222;5.678;2023-06-19T03:16:18;3.70;;;1.30;;
28772;SDS011;15925;51.222;5.678;2023-06-19T03:18:45;4.95;;;2.17;;
28772;SDS011;15925;51.222;5.678;2023-06-19T03:21:16;2.60;;;1.52;;
28772;SDS011;15925;51.222;5.678;2023-06-19T03:23:45;4.38;;;1.95;;
28772;SDS011;15925;51.222;5.678;2023-06-19T03:26:11;2.33;;;1.23;;
28772;SDS011;15925;51.222;5.678;2023-06-19T03:28:39;6.43;;;1.15;;
28772;SDS011;15925;51.222;5.678;2023-06-19T03:31:07;11.13;;;1.60;;
28772;SDS011;15925;51.222;5.678;2023-06-19T03:33:33;2.38;;;1.40;;
28772;SDS011;15925;51.222;5.678;2023-06-19T03:38:54;5.25;;;1.02;;
28772;SDS011;15925;51.222;5.678;2023-06-19T03:41:24;2.35;;;1.30;;
28772;SDS011;15925;51.222;5.678;2023-06-19T03:43:51;1.48;;;1.02;;
28772;SDS011;15925;51.222;5.678;2023-06-19T03:46:17;3.13;;;1.23;;
28772;SDS011;15925;51.222;5.678;2023-06-19T03:48:44;2.80;;;1.57;;
28772;SDS011;15925;51.222;5.678;2023-06-19T03:51:10;3.45;;;1.15;;
28772;SDS011;15925;51.222;5.678;2023-06-19T03:53:37;12.52;;;1.25;;
28772;SDS011;15925;51.222;5.678;2023-06-19T03:56:03;4.77;;;1.77;;
28772;SDS011;15925;51.222;5.678;2023-06-19T03:58:30;6.57;;;1.48;;
28772;SDS011;15925;51.222;5.678;2023-06-19T04:00:56;4.97;;;1.75;;
28772;SDS011;15925;51.222;5.678;2023-06-19T04:03:22;2.33;;;1.30;;
28772;SDS011;15925;51.222;5.678;2023-06-19T04:05:48;3.95;;;1.10;;
28772;SDS011;15925;51.222;5.678;2023-06-19T04:08:13;2.25;;;1.25;;
28772;SDS011;15925;51.222;5.678;2023-06-19T04:10:42;2.72;;;1.02;;
28772;SDS011;15925;51.222;5.678;2023-06-19T04:13:08;2.15;;;1.38;;
28772;SDS011;15925;51.222;5.678;2023-06-19T04:15:35;2.67;;;1.17;;
28772;SDS011;15925;51.222;5.678;2023-06-19T04:20:29;2.97;;;1.20;;
28772;SDS011;15925;51.222;5.678;2023-06-19T04:22:55;3.30;;;1.60;;
28772;SDS011;15925;51.222;5.678;2023-06-19T04:25:21;1.95;;;1.02;;
28772;SDS011;15925;51.222;5.678;2023-06-19T04:27:46;2.53;;;1.10;;
28772;SDS011;15925;51.222;5.678;2023-06-19T04:30:12;3.63;;;1.10;;
28772;SDS011;15925;51.222;5.678;2023-06-19T04:32:38;1.23;;;1.05;;
28772;SDS011;15925;51.222;5.678;2023-06-19T04:35:06;6.00;;;1.88;;
28772;SDS011;15925;51.222;5.678;2023-06-19T04:37:32;2.15;;;1.27;;
28772;SDS011;15925;51.222;5.678;2023-06-19T04:39:58;3.47;;;1.13;;
28772;SDS011;15925;51.222;5.678;2023-06-19T04:42:24;2.97;;;1.67;;
28772;SDS011;15925;51.222;5.678;2023-06-19T04:44:51;2.45;;;1.33;;
28772;SDS011;15925;51.222;5.678;2023-06-19T04:47:18;5.05;;;1.40;;
28772;SDS011;15925;51.222;5.678;2023-06-19T04:49:45;3.38;;;1.30;;
28772;SDS011;15925;51.222;5.678;2023-06-19T04:52:11;3.75;;;1.50;;
28772;SDS011;15925;51.222;5.678;2023-06-19T04:54:37;2.53;;;1.52;;
28772;SDS011;15925;51.222;5.678;2023-06-19T04:57:03;5.13;;;1.43;;
28772;SDS011;15925;51.222;5.678;2023-06-19T04:59:29;2.03;;;1.05;;
28772;SDS011;15925;51.222;5.678;2023-06-19T05:01:56;4.60;;;1.77;;
28772;SDS011;15925;51.222;5.678;2023-06-19T05:04:22;8.23;;;1.75;;
28772;SDS011;15925;51.222;5.678;2023-06-19T05:06:49;1.65;;;1.05;;
28772;SDS011;15925;51.222;5.678;2023-06-19T05:09:15;4.53;;;1.85;;
28772;SDS011;15925;51.222;5.678;2023-06-19T05:11:41;3.70;;;1.75;;
28772;SDS011;15925;51.222;5.678;2023-06-19T05:14:07;1.50;;;1.30;;
28772;SDS011;15925;51.222;5.678;2023-06-19T05:16:35;12.57;;;1.55;;
28772;SDS011;15925;51.222;5.678;2023-06-19T05:19:01;4.28;;;1.65;;
28772;SDS011;15925;51.222;5.678;2023-06-19T05:21:27;4.90;;;1.85;;
28772;SDS011;15925;51.222;5.678;2023-06-19T05:23:53;4.78;;;1.40;;
28772;SDS011;15925;51.222;5.678;2023-06-19T05:26:19;2.42;;;1.27;;
28772;SDS011;15925;51.222;5.678;2023-06-19T05:28:45;4.38;;;1.70;;
28772;SDS011;15925;51.222;5.678;2023-06-19T05:31:12;5.32;;;1.80;;
28772;SDS011;15925;51.222;5.678;2023-06-19T05:33:38;3.83;;;1.60;;
28772;SDS011;15925;51.222;5.678;2023-06-19T05:36:03;1.80;;;1.30;;
28772;SDS011;15925;51.222;5.678;2023-06-19T05:38:29;1.08;;;0.82;;
28772;SDS011;15925;51.222;5.678;2023-06-19T05:40:56;9.85;;;1.33;;
28772;SDS011;15925;51.222;5.678;2023-06-19T05:43:22;4.22;;;1.70;;
28772;SDS011;15925;51.222;5.678;2023-06-19T05:45:49;2.53;;;1.30;;
28772;SDS011;15925;51.222;5.678;2023-06-19T05:48:17;1.95;;;1.30;;
28772;SDS011;15925;51.222;5.678;2023-06-19T05:50:43;5.17;;;1.50;;
28772;SDS011;15925;51.222;5.678;2023-06-19T05:53:08;3.77;;;1.60;;
28772;SDS011;15925;51.222;5.678;2023-06-19T05:55:34;3.23;;;1.83;;
28772;SDS011;15925;51.222;5.678;2023-06-19T05:58:00;3.63;;;1.70;;
28772;SDS011;15925;51.222;5.678;2023-06-19T06:00:27;2.90;;;1.50;;
28772;SDS011;15925;51.222;5.678;2023-06-19T06:02:52;9.37;;;2.10;;
28772;SDS011;15925;51.222;5.678;2023-06-19T06:05:18;3.30;;;1.20;;
28772;SDS011;15925;51.222;5.678;2023-06-19T06:07:45;12.90;;;2.03;;
28772;SDS011;15925;51.222;5.678;2023-06-19T06:10:11;12.15;;;2.40;;
28772;SDS011;15925;51.222;5.678;2023-06-19T06:12:37;3.88;;;2.22;;
28772;SDS011;15925;51.222;5.678;2023-06-19T06:15:04;4.10;;;2.25;;
28772;SDS011;15925;51.222;5.678;2023-06-19T06:17:30;2.88;;;1.73;;
28772;SDS011;15925;51.222;5.678;2023-06-19T06:19:56;4.05;;;1.90;;
28772;SDS011;15925;51.222;5.678;2023-06-19T06:22:22;5.22;;;2.15;;
28772;SDS011;15925;51.222;5.678;2023-06-19T06:24:48;2.73;;;2.17;;
28772;SDS011;15925;51.222;5.678;2023-06-19T06:27:14;2.83;;;1.60;;
28772;SDS011;15925;51.222;5.678;2023-06-19T06:29:40;4.43;;;1.83;;
28772;SDS011;15925;51.222;5.678;2023-06-19T06:32:06;5.23;;;2.17;;
28772;SDS011;15925;51.222;5.678;2023-06-19T06:34:35;5.28;;;1.98;;
28772;SDS011;15925;51.222;5.678;2023-06-19T06:37:01;5.35;;;2.28;;
28772;SDS011;15925;51.222;5.678;2023-06-19T06:39:27;7.45;;;2.22;;
28772;SDS011;15925;51.222;5.678;2023-06-19T06:41:53;5.03;;;2.05;;
28772;SDS011;15925;51.222;5.678;2023-06-19T06:44:19;9.30;;;2.40;;
28772;SDS011;15925;51.222;5.678;2023-06-19T06:46:45;3.83;;;2.83;;
28772;SDS011;15925;51.222;5.678;2023-06-19T06:49:11;2.90;;;1.73;;
28772;SDS011;15925;51.222;5.678;2023-06-19T06:51:37;3.33;;;1.77;;
28772;SDS011;15925;51.222;5.678;2023-06-19T06:54:03;4.43;;;1.97;;
28772;SDS011;15925;51.222;5.678;2023-06-19T06:56:29;5.60;;;2.40;;
28772;SDS011;15925;51.222;5.678;2023-06-19T06:58:55;6.18;;;2.50;;
28772;SDS011;15925;51.222;5.678;2023-06-19T07:01:20;3.83;;;2.50;;
28772;SDS011;15925;51.222;5.678;2023-06-19T07:03:46;3.95;;;1.88;;
28772;SDS011;15925;51.222;5.678;2023-06-19T07:06:12;3.47;;;2.13;;
28772;SDS011;15925;51.222;5.678;2023-06-19T07:08:38;4.13;;;1.83;;
28772;SDS011;15925;51.222;5.678;2023-06-19T07:11:06;4.95;;;2.38;;
28772;SDS011;15925;51.222;5.678;2023-06-19T07:13:32;3.30;;;2.22;;
28772;SDS011;15925;51.222;5.678;2023-06-19T07:15:58;3.57;;;2.30;;
28772;SDS011;15925;51.222;5.678;2023-06-19T07:18:25;4.15;;;2.28;;
28772;SDS011;15925;51.222;5.678;2023-06-19T07:20:51;5.72;;;2.88;;
28772;SDS011;15925;51.222;5.678;2023-06-19T07:23:17;5.03;;;2.97;;
28772;SDS011;15925;51.222;5.678;2023-06-19T07:25:43;7.60;;;2.28;;
28772;SDS011;15925;51.222;5.678;2023-06-19T07:28:13;6.95;;;3.13;;
28772;SDS011;15925;51.222;5.678;2023-06-19T07:33:05;6.07;;;2.92;;
28772;SDS011;15925;51.222;5.678;2023-06-19T07:35:31;6.17;;;3.23;;
28772;SDS011;15925;51.222;5.678;2023-06-19T07:37:57;5.23;;;2.80;;
28772;SDS011;15925;51.222;5.678;2023-06-19T07:40:23;6.63;;;2.70;;
28772;SDS011;15925;51.222;5.678;2023-06-19T07:42:49;7.88;;;3.00;;
28772;SDS011;15925;51.222;5.678;2023-06-19T07:45:14;17.03;;;3.07;;
28772;SDS011;15925;51.222;5.678;2023-06-19T07:47:40;12.13;;;3.42;;
28772;SDS011;15925;51.222;5.678;2023-06-19T07:50:06;7.90;;;3.08;;
28772;SDS011;15925;51.222;5.678;2023-06-19T07:52:32;16.98;;;2.80;;
28772;SDS011;15925;51.222;5.678;2023-06-19T07:54:59;4.03;;;2.78;;
28772;SDS011;15925;51.222;5.678;2023-06-19T07:57:25;5.43;;;2.75;;
28772;SDS011;15925;51.222;5.678;2023-06-19T08:02:18;5.15;;;2.38;;
28772;SDS011;15925;51.222;5.678;2023-06-19T08:04:44;7.47;;;3.53;;
28772;SDS011;15925;51.222;5.678;2023-06-19T08:07:11;4.07;;;2.63;;
28772;SDS011;15925;51.222;5.678;2023-06-19T08:09:37;4.30;;;2.70;;
28772;SDS011;15925;51.222;5.678;2023-06-19T08:12:03;5.20;;;2.73;;
28772;SDS011;15925;51.222;5.678;2023-06-19T08:14:29;10.40;;;2.78;;
28772;SDS011;15925;51.222;5.678;2023-06-19T08:16:55;19.80;;;3.55;;
28772;SDS011;15925;51.222;5.678;2023-06-19T08:19:20;7.68;;;3.22;;
28772;SDS011;15925;51.222;5.678;2023-06-19T08:21:46;8.07;;;2.40;;
28772;SDS011;15925;51.222;5.678;2023-06-19T08:24:12;6.57;;;2.83;;
28772;SDS011;15925;51.222;5.678;2023-06-19T08:26:38;6.43;;;2.72;;
28772;SDS011;15925;51.222;5.678;2023-06-19T08:29:04;3.47;;;2.20;;
28772;SDS011;15925;51.222;5.678;2023-06-19T08:31:29;5.90;;;3.07;;
28772;SDS011;15925;51.222;5.678;2023-06-19T08:33:55;4.82;;;2.85;;
28772;SDS011;15925;51.222;5.678;2023-06-19T08:36:22;17.40;;;3.38;;
28772;SDS011;15925;51.222;5.678;2023-06-19T08:38:48;5.15;;;2.53;;
28772;SDS011;15925;51.222;5.678;2023-06-19T08:41:16;11.70;;;2.83;;
28772;SDS011;15925;51.222;5.678;2023-06-19T08:43:44;7.20;;;3.00;;
28772;SDS011;15925;51.222;5.678;2023-06-19T08:46:11;7.93;;;3.55;;
28772;SDS011;15925;51.222;5.678;2023-06-19T08:48:40;4.38;;;2.25;;
28772;SDS011;15925;51.222;5.678;2023-06-19T08:51:06;9.40;;;2.90;;
28772;SDS011;15925;51.222;5.678;2023-06-19T08:53:35;4.50;;;2.50;;
28772;SDS011;15925;51.222;5.678;2023-06-19T08:56:04;13.40;;;2.55;;
28772;SDS011;15925;51.222;5.678;2023-06-19T08:58:30;5.93;;;3.35;;
28772;SDS011;15925;51.222;5.678;2023-06-19T09:00:58;10.00;;;2.80;;
28772;SDS011;15925;51.222;5.678;2023-06-19T09:03:24;4.30;;;2.45;;
28772;SDS011;15925;51.222;5.678;2023-06-19T09:05:50;3.65;;;2.38;;
28772;SDS011;15925;51.222;5.678;2023-06-19T09:08:19;5.60;;;2.78;;
28772;SDS011;15925;51.222;5.678;2023-06-19T09:11:01;8.70;;;2.85;;
28772;SDS011;15925;51.222;5.678;2023-06-19T09:13:29;7.88;;;2.72;;
28772;SDS011;15925;51.222;5.678;2023-06-19T09:16:07;5.32;;;2.50;;
28772;SDS011;15925;51.222;5.678;2023-06-19T09:18:46;3.38;;;2.58;;
28772;SDS011;15925;51.222;5.678;2023-06-19T09:21:18;4.38;;;2.28;;
28772;SDS011;15925;51.222;5.678;2023-06-19T09:23:46;5.43;;;2.25;;
28772;SDS011;15925;51.222;5.678;2023-06-19T09:26:14;5.93;;;3.17;;
28772;SDS011;15925;51.222;5.678;2023-06-19T09:31:09;5.03;;;2.53;;
28772;SDS011;15925;51.222;5.678;2023-06-19T09:33:36;3.92;;;2.03;;
28772;SDS011;15925;51.222;5.678;2023-06-19T09:36:03;9.07;;;2.58;;
28772;SDS011;15925;51.222;5.678;2023-06-19T09:38:32;6.40;;;2.60;;
28772;SDS011;15925;51.222;5.678;2023-06-19T09:41:02;4.72;;;2.85;;
28772;SDS011;15925;51.222;5.678;2023-06-19T09:43:33;4.97;;;2.05;;
28772;SDS011;15925;51.222;5.678;2023-06-19T09:46:10;8.10;;;2.95;;
28772;SDS011;15925;51.222;5.678;2023-06-19T09:48:40;6.47;;;2.35;;
28772;SDS011;15925;51.222;5.678;2023-06-19T09:53:46;4.72;;;2.58;;
28772;SDS011;15925;51.222;5.678;2023-06-19T09:56:13;6.22;;;2.75;;
28772;SDS011;15925;51.222;5.678;2023-06-19T09:58:40;3.85;;;2.25;;
28772;SDS011;15925;51.222;5.678;2023-06-19T10:01:07;10.27;;;2.90;;
28772;SDS011;15925;51.222;5.678;2023-06-19T10:03:34;6.10;;;2.70;;
28772;SDS011;15925;51.222;5.678;2023-06-19T10:06:01;5.00;;;2.42;;
28772;SDS011;15925;51.222;5.678;2023-06-19T10:08:31;6.45;;;3.08;;
28772;SDS011;15925;51.222;5.678;2023-06-19T10:11:04;13.95;;;2.97;;
28772;SDS011;15925;51.222;5.678;2023-06-19T10:13:31;4.10;;;2.45;;
28772;SDS011;15925;51.222;5.678;2023-06-19T10:15:58;6.25;;;2.83;;
28772;SDS011;15925;51.222;5.678;2023-06-19T10:18:24;5.60;;;2.60;;
28772;SDS011;15925;51.222;5.678;2023-06-19T10:20:51;5.55;;;2.72;;
28772;SDS011;15925;51.222;5.678;2023-06-19T10:23:19;9.05;;;3.63;;
28772;SDS011;15925;51.222;5.678;2023-06-19T10:25:57;9.07;;;2.97;;
28772;SDS011;15925;51.222;5.678;2023-06-19T10:28:28;5.07;;;2.67;;
28772;SDS011;15925;51.222;5.678;2023-06-19T10:33:35;8.88;;;3.17;;
28772;SDS011;15925;51.222;5.678;2023-06-19T10:36:14;4.72;;;2.58;;
28772;SDS011;15925;51.222;5.678;2023-06-19T10:38:42;7.00;;;2.65;;
28772;SDS011;15925;51.222;5.678;2023-06-19T10:41:19;4.70;;;2.55;;
28772;SDS011;15925;51.222;5.678;2023-06-19T10:43:58;4.00;;;2.70;;
28772;SDS011;15925;51.222;5.678;2023-06-19T10:46:35;4.53;;;2.65;;
28772;SDS011;15925;51.222;5.678;2023-06-19T10:49:01;5.95;;;2.90;;
28772;SDS011;15925;51.222;5.678;2023-06-19T10:51:38;6.15;;;2.72;;
28772;SDS011;15925;51.222;5.678;2023-06-19T10:54:05;8.15;;;3.20;;
28772;SDS011;15925;51.222;5.678;2023-06-19T10:56:31;5.55;;;2.67;;
28772;SDS011;15925;51.222;5.678;2023-06-19T11:01:38;9.48;;;2.70;;
28772;SDS011;15925;51.222;5.678;2023-06-19T11:04:09;5.28;;;2.83;;
28772;SDS011;15925;51.222;5.678;2023-06-19T11:06:37;8.18;;;2.65;;
28772;SDS011;15925;51.222;5.678;2023-06-19T11:09:03;11.95;;;2.75;;
28772;SDS011;15925;51.222;5.678;2023-06-19T11:14:04;5.75;;;2.70;;
28772;SDS011;15925;51.222;5.678;2023-06-19T11:18:57;5.15;;;2.33;;
28772;SDS011;15925;51.222;5.678;2023-06-19T11:21:32;4.70;;;2.75;;
28772;SDS011;15925;51.222;5.678;2023-06-19T11:24:02;14.27;;;2.90;;
28772;SDS011;15925;51.222;5.678;2023-06-19T11:26:28;3.95;;;2.08;;
28772;SDS011;15925;51.222;5.678;2023-06-19T11:28:54;5.72;;;2.95;;
28772;SDS011;15925;51.222;5.678;2023-06-19T11:31:26;8.07;;;3.30;;
28772;SDS011;15925;51.222;5.678;2023-06-19T11:33:59;11.80;;;3.03;;
28772;SDS011;15925;51.222;5.678;2023-06-19T11:36:27;11.82;;;3.13;;
28772;SDS011;15925;51.222;5.678;2023-06-19T11:38:55;6.32;;;2.60;;
28772;SDS011;15925;51.222;5.678;2023-06-19T11:41:24;6.47;;;3.45;;
28772;SDS011;15925;51.222;5.678;2023-06-19T11:43:59;6.90;;;2.35;;
28772;SDS011;15925;51.222;5.678;2023-06-19T11:46:37;8.43;;;2.97;;
28772;SDS011;15925;51.222;5.678;2023-06-19T11:49:07;7.32;;;3.30;;
28772;SDS011;15925;51.222;5.678;2023-06-19T11:51:40;6.95;;;2.72;;
28772;SDS011;15925;51.222;5.678;2023-06-19T11:54:06;6.10;;;2.90;;
28772;SDS011;15925;51.222;5.678;2023-06-19T11:56:37;8.68;;;3.10;;
28772;SDS011;15925;51.222;5.678;2023-06-19T11:59:03;11.13;;;2.63;;
28772;SDS011;15925;51.222;5.678;2023-06-19T12:01:31;5.60;;;3.03;;
28772;SDS011;15925;51.222;5.678;2023-06-19T12:03:58;8.15;;;3.30;;
28772;SDS011;15925;51.222;5.678;2023-06-19T12:08:50;8.65;;;2.80;;
28772;SDS011;15925;51.222;5.678;2023-06-19T12:11:16;7.68;;;2.70;;
28772;SDS011;15925;51.222;5.678;2023-06-19T12:13:41;10.38;;;2.88;;
28772;SDS011;15925;51.222;5.678;2023-06-19T12:16:08;4.97;;;2.38;;
28772;SDS011;15925;51.222;5.678;2023-06-19T12:18:37;9.35;;;2.97;;
28772;SDS011;15925;51.222;5.678;2023-06-19T12:21:03;16.50;;;3.15;;
28772;SDS011;15925;51.222;5.678;2023-06-19T12:23:29;5.45;;;2.30;;
28772;SDS011;15925;51.222;5.678;2023-06-19T12:25:55;5.63;;;2.10;;
28772;SDS011;15925;51.222;5.678;2023-06-19T12:28:22;5.22;;;2.72;;
28772;SDS011;15925;51.222;5.678;2023-06-19T12:30:48;6.65;;;2.63;;
28772;SDS011;15925;51.222;5.678;2023-06-19T12:33:17;7.95;;;3.15;;
28772;SDS011;15925;51.222;5.678;2023-06-19T12:35:43;5.25;;;2.83;;
28772;SDS011;15925;51.222;5.678;2023-06-19T12:38:09;5.35;;;2.90;;
28772;SDS011;15925;51.222;5.678;2023-06-19T12:40:36;7.45;;;2.72;;
28772;SDS011;15925;51.222;5.678;2023-06-19T12:45:27;7.32;;;2.67;;
28772;SDS011;15925;51.222;5.678;2023-06-19T12:47:53;7.28;;;2.88;;
28772;SDS011;15925;51.222;5.678;2023-06-19T12:50:19;6.85;;;3.05;;
28772;SDS011;15925;51.222;5.678;2023-06-19T12:52:45;9.38;;;2.35;;
28772;SDS011;15925;51.222;5.678;2023-06-19T12:55:11;7.50;;;3.05;;
28772;SDS011;15925;51.222;5.678;2023-06-19T12:57:37;8.23;;;2.92;;
28772;SDS011;15925;51.222;5.678;2023-06-19T13:00:03;4.55;;;2.42;;
28772;SDS011;15925;51.222;5.678;2023-06-19T13:02:33;4.35;;;2.20;;
28772;SDS011;15925;51.222;5.678;2023-06-19T13:04:59;10.18;;;2.72;;
28772;SDS011;15925;51.222;5.678;2023-06-19T13:07:25;5.28;;;2.22;;
28772;SDS011;15925;51.222;5.678;2023-06-19T13:09:51;8.50;;;2.03;;
28772;SDS011;15925;51.222;5.678;2023-06-19T13:12:17;3.25;;;2.03;;
28772;SDS011;15925;51.222;5.678;2023-06-19T13:14:43;7.55;;;2.65;;
28772;SDS011;15925;51.222;5.678;2023-06-19T13:17:08;4.55;;;2.47;;
28772;SDS011;15925;51.222;5.678;2023-06-19T13:19:34;4.15;;;2.45;;
28772;SDS011;15925;51.222;5.678;2023-06-19T13:22:00;4.68;;;2.15;;
28772;SDS011;15925;51.222;5.678;2023-06-19T13:24:26;6.88;;;2.95;;
28772;SDS011;15925;51.222;5.678;2023-06-19T13:26:54;8.45;;;2.70;;
28772;SDS011;15925;51.222;5.678;2023-06-19T13:29:20;3.95;;;1.88;;
28772;SDS011;15925;51.222;5.678;2023-06-19T13:34:12;8.32;;;2.22;;
28772;SDS011;15925;51.222;5.678;2023-06-19T13:36:38;3.08;;;1.80;;
28772;SDS011;15925;51.222;5.678;2023-06-19T13:39:05;9.23;;;1.85;;
28772;SDS011;15925;51.222;5.678;2023-06-19T13:41:31;5.05;;;2.42;;
28772;SDS011;15925;51.222;5.678;2023-06-19T13:43:58;4.10;;;1.77;;
28772;SDS011;15925;51.222;5.678;2023-06-19T13:46:24;3.05;;;2.08;;
28772;SDS011;15925;51.222;5.678;2023-06-19T13:48:50;4.40;;;2.03;;
28772;SDS011;15925;51.222;5.678;2023-06-19T13:53:43;4.38;;;2.63;;
28772;SDS011;15925;51.222;5.678;2023-06-19T13:56:09;6.80;;;2.38;;
28772;SDS011;15925;51.222;5.678;2023-06-19T13:58:35;5.32;;;2.60;;
28772;SDS011;15925;51.222;5.678;2023-06-19T14:01:01;6.38;;;2.30;;
28772;SDS011;15925;51.222;5.678;2023-06-19T14:03:27;5.57;;;2.30;;
28772;SDS011;15925;51.222;5.678;2023-06-19T14:05:53;3.35;;;2.05;;
28772;SDS011;15925;51.222;5.678;2023-06-19T14:08:18;3.85;;;1.80;;
28772;SDS011;15925;51.222;5.678;2023-06-19T14:10:44;3.60;;;1.85;;
28772;SDS011;15925;51.222;5.678;2023-06-19T14:13:10;6.85;;;2.15;;
28772;SDS011;15925;51.222;5.678;2023-06-19T14:15:36;3.85;;;1.70;;
28772;SDS011;15925;51.222;5.678;2023-06-19T14:18:01;8.80;;;2.17;;
28772;SDS011;15925;51.222;5.678;2023-06-19T14:20:27;5.20;;;2.78;;
28772;SDS011;15925;51.222;5.678;2023-06-19T14:22:53;4.65;;;2.05;;
28772;SDS011;15925;51.222;5.678;2023-06-19T14:25:19;9.68;;;2.35;;
28772;SDS011;15925;51.222;5.678;2023-06-19T14:27:44;2.97;;;2.20;;
28772;SDS011;15925;51.222;5.678;2023-06-19T14:30:10;4.68;;;2.53;;
28772;SDS011;15925;51.222;5.678;2023-06-19T14:32:37;6.60;;;2.60;;
28772;SDS011;15925;51.222;5.678;2023-06-19T14:35:03;6.38;;;2.17;;
28772;SDS011;15925;51.222;5.678;2023-06-19T14:37:30;7.53;;;2.55;;
28772;SDS011;15925;51.222;5.678;2023-06-19T14:39:58;4.13;;;2.20;;
28772;SDS011;15925;51.222;5.678;2023-06-19T14:42:24;4.72;;;2.53;;
28772;SDS011;15925;51.222;5.678;2023-06-19T14:44:50;6.32;;;2.75;;
28772;SDS011;15925;51.222;5.678;2023-06-19T14:47:15;4.72;;;2.40;;
28772;SDS011;15925;51.222;5.678;2023-06-19T14:49:41;5.55;;;2.10;;
28772;SDS011;15925;51.222;5.678;2023-06-19T14:52:07;5.57;;;1.85;;
28772;SDS011;15925;51.222;5.678;2023-06-19T14:54:33;4.18;;;1.95;;
28772;SDS011;15925;51.222;5.678;2023-06-19T14:56:59;2.47;;;1.67;;
28772;SDS011;15925;51.222;5.678;2023-06-19T14:59:24;9.88;;;2.33;;
28772;SDS011;15925;51.222;5.678;2023-06-19T15:01:50;5.75;;;2.30;;
28772;SDS011;15925;51.222;5.678;2023-06-19T15:04:16;16.13;;;2.17;;
28772;SDS011;15925;51.222;5.678;2023-06-19T15:06:42;4.65;;;1.80;;
28772;SDS011;15925;51.222;5.678;2023-06-19T15:09:08;6.60;;;2.00;;
28772;SDS011;15925;51.222;5.678;2023-06-19T15:11:33;4.13;;;2.17;;
28772;SDS011;15925;51.222;5.678;2023-06-19T15:13:59;3.60;;;2.05;;
28772;SDS011;15925;51.222;5.678;2023-06-19T15:16:25;7.03;;;1.80;;
28772;SDS011;15925;51.222;5.678;2023-06-19T15:18:53;3.85;;;1.60;;
28772;SDS011;15925;51.222;5.678;2023-06-19T15:21:19;5.50;;;2.10;;
28772;SDS011;15925;51.222;5.678;2023-06-19T15:23:45;3.17;;;2.10;;
28772;SDS011;15925;51.222;5.678;2023-06-19T15:26:10;2.83;;;1.80;;
28772;SDS011;15925;51.222;5.678;2023-06-19T15:28:36;4.25;;;1.60;;
28772;SDS011;15925;51.222;5.678;2023-06-19T15:31:02;12.93;;;2.00;;
28772;SDS011;15925;51.222;5.678;2023-06-19T15:33:36;3.33;;;1.80;;
28772;SDS011;15925;51.222;5.678;2023-06-19T15:36:02;4.57;;;1.70;;
28772;SDS011;15925;51.222;5.678;2023-06-19T15:38:29;5.10;;;1.52;;